sensor_id;sensor_type;location;lat;lon;timestamp;P1;durP1;ratioP1;P2;durP2;ratioP2
54416;SDS011;40326;51.220;7.250;2022-08-25T00:01:19;4.20;;;2.17;;
54416;SDS011;40326;51.220;7.250;2022-08-25T00:03:45;4.38;;;1.88;;
54416;SDS011;40326;51.220;7.250;2022-08-25T00:06:12;3.47;;;1.98;;
54416;SDS011;40326;51.220;7.250;2022-08-25T00:08:37;3.53;;;1.95;;
54416;SDS011;40326;51.220;7.250;2022-08-25T00:11:04;3.80;;;2.13;;
54416;SDS011;40326;51.220;7.250;2022-08-25T00:13:31;3.85;;;2.00;;
54416;SDS011;40326;51.220;7.250;2022-08-25T00:15:57;4.28;;;2.22;;
54416;SDS011;40326;51.220;7.250;2022-08-25T00:18:22;4.07;;;2.30;;
54416;SDS011;40326;51.220;7.250;2022-08-25T00:20:48;5.38;;;2.15;;
54416;SDS011;40326;51.220;7.250;2022-08-25T00:23:14;5.10;;;2.15;;
54416;SDS011;40326;51.220;7.250;2022-08-25T00:25:39;4.40;;;2.30;;
54416;SDS011;40326;51.220;7.250;2022-08-25T00:28:05;4.70;;;2.10;;
54416;SDS011;40326;51.220;7.250;2022-08-25T00:30:30;3.60;;;1.88;;
54416;SDS011;40326;51.220;7.250;2022-08-25T00:32:55;4.63;;;2.00;;
54416;SDS011;40326;51.220;7.250;2022-08-25T00:35:21;5.43;;;2.00;;
54416;SDS011;40326;51.220;7.250;2022-08-25T00:37:47;4.45;;;1.90;;
54416;SDS011;40326;51.220;7.250;2022-08-25T00:40:13;3.72;;;2.20;;
54416;SDS011;40326;51.220;7.250;2022-08-25T00:42:38;3.30;;;1.88;;
54416;SDS011;40326;51.220;7.250;2022-08-25T00:45:05;5.60;;;2.00;;
54416;SDS011;40326;51.220;7.250;2022-08-25T00:47:33;4.57;;;1.75;;
54416;SDS011;40326;51.220;7.250;2022-08-25T00:49:59;4.28;;;2.33;;
54416;SDS011;40326;51.220;7.250;2022-08-25T00:52:27;5.15;;;2.17;;
54416;SDS011;40326;51.220;7.250;2022-08-25T00:55:05;5.03;;;2.30;;
54416;SDS011;40326;51.220;7.250;2022-08-25T00:57:40;4.03;;;1.85;;
54416;SDS011;40326;51.220;7.250;2022-08-25T01:00:10;4.57;;;2.17;;
54416;SDS011;40326;51.220;7.250;2022-08-25T01:02:44;3.88;;;2.22;;
54416;SDS011;40326;51.220;7.250;2022-08-25T01:05:11;3.45;;;1.80;;
54416;SDS011;40326;51.220;7.250;2022-08-25T01:07:37;8.23;;;2.22;;
54416;SDS011;40326;51.220;7.250;2022-08-25T01:10:04;4.30;;;2.00;;
54416;SDS011;40326;51.220;7.250;2022-08-25T01:12:32;5.00;;;2.22;;
54416;SDS011;40326;51.220;7.250;2022-08-25T01:14:58;3.63;;;2.00;;
54416;SDS011;40326;51.220;7.250;2022-08-25T01:17:31;4.95;;;2.25;;
54416;SDS011;40326;51.220;7.250;2022-08-25T01:20:08;5.95;;;2.30;;
54416;SDS011;40326;51.220;7.250;2022-08-25T01:22:34;3.10;;;2.08;;
54416;SDS011;40326;51.220;7.250;2022-08-25T01:25:01;4.18;;;2.22;;
54416;SDS011;40326;51.220;7.250;2022-08-25T01:27:31;4.72;;;2.25;;
54416;SDS011;40326;51.220;7.250;2022-08-25T01:29:56;4.72;;;2.15;;
54416;SDS011;40326;51.220;7.250;2022-08-25T01:32:22;4.07;;;2.20;;
54416;SDS011;40326;51.220;7.250;2022-08-25T01:34:47;4.40;;;2.08;;
54416;SDS011;40326;51.220;7.250;2022-08-25T01:37:14;3.90;;;2.20;;
54416;SDS011;40326;51.220;7.250;2022-08-25T01:39:41;4.53;;;2.33;;
54416;SDS011;40326;51.220;7.250;2022-08-25T01:42:18;4.65;;;2.60;;
54416;SDS011;40326;51.220;7.250;2022-08-25T01:44:52;4.78;;;2.22;;
54416;SDS011;40326;51.220;7.250;2022-08-25T01:47:17;6.30;;;2.45;;
54416;SDS011;40326;51.220;7.250;2022-08-25T01:49:43;5.30;;;2.28;;
54416;SDS011;40326;51.220;7.250;2022-08-25T01:54:55;3.42;;;2.13;;
54416;SDS011;40326;51.220;7.250;2022-08-25T01:57:21;5.05;;;2.53;;
54416;SDS011;40326;51.220;7.250;2022-08-25T01:59:46;5.25;;;2.40;;
54416;SDS011;40326;51.220;7.250;2022-08-25T02:02:12;4.85;;;2.30;;
54416;SDS011;40326;51.220;7.250;2022-08-25T02:04:37;4.85;;;2.28;;
54416;SDS011;40326;51.220;7.250;2022-08-25T02:07:04;4.50;;;2.05;;
54416;SDS011;40326;51.220;7.250;2022-08-25T02:09:31;3.70;;;2.20;;
54416;SDS011;40326;51.220;7.250;2022-08-25T02:11:57;5.05;;;2.50;;
54416;SDS011;40326;51.220;7.250;2022-08-25T02:14:23;4.25;;;2.30;;
54416;SDS011;40326;51.220;7.250;2022-08-25T02:16:49;5.78;;;2.65;;
54416;SDS011;40326;51.220;7.250;2022-08-25T02:19:17;4.40;;;2.20;;
54416;SDS011;40326;51.220;7.250;2022-08-25T02:21:45;5.45;;;2.70;;
54416;SDS011;40326;51.220;7.250;2022-08-25T02:24:11;4.28;;;2.50;;
54416;SDS011;40326;51.220;7.250;2022-08-25T02:26:37;4.85;;;2.40;;
54416;SDS011;40326;51.220;7.250;2022-08-25T02:29:03;4.53;;;2.33;;
54416;SDS011;40326;51.220;7.250;2022-08-25T02:31:29;4.82;;;2.40;;
54416;SDS011;40326;51.220;7.250;2022-08-25T02:33:55;4.63;;;2.90;;
54416;SDS011;40326;51.220;7.250;2022-08-25T02:36:21;5.28;;;2.63;;
54416;SDS011;40326;51.220;7.250;2022-08-25T02:38:47;5.85;;;2.92;;
54416;SDS011;40326;51.220;7.250;2022-08-25T02:41:15;5.80;;;2.95;;
54416;SDS011;40326;51.220;7.250;2022-08-25T02:43:44;4.15;;;2.65;;
54416;SDS011;40326;51.220;7.250;2022-08-25T02:46:12;5.82;;;2.50;;
54416;SDS011;40326;51.220;7.250;2022-08-25T02:48:37;6.25;;;2.78;;
54416;SDS011;40326;51.220;7.250;2022-08-25T02:51:04;4.38;;;2.60;;
54416;SDS011;40326;51.220;7.250;2022-08-25T02:53:31;4.30;;;2.70;;
54416;SDS011;40326;51.220;7.250;2022-08-25T02:55:56;5.45;;;2.85;;
54416;SDS011;40326;51.220;7.250;2022-08-25T02:58:22;5.00;;;2.50;;
54416;SDS011;40326;51.220;7.250;2022-08-25T03:00:48;5.80;;;3.00;;
54416;SDS011;40326;51.220;7.250;2022-08-25T03:03:14;5.15;;;3.00;;
54416;SDS011;40326;51.220;7.250;2022-08-25T03:05:39;4.45;;;2.78;;
54416;SDS011;40326;51.220;7.250;2022-08-25T03:08:05;6.00;;;3.20;;
54416;SDS011;40326;51.220;7.250;2022-08-25T03:10:32;4.50;;;2.85;;
54416;SDS011;40326;51.220;7.250;2022-08-25T03:12:57;6.72;;;2.97;;
54416;SDS011;40326;51.220;7.250;2022-08-25T03:15:23;4.82;;;2.78;;
54416;SDS011;40326;51.220;7.250;2022-08-25T03:17:49;5.80;;;3.17;;
54416;SDS011;40326;51.220;7.250;2022-08-25T03:20:15;5.47;;;2.83;;
54416;SDS011;40326;51.220;7.250;2022-08-25T03:22:41;5.22;;;2.90;;
54416;SDS011;40326;51.220;7.250;2022-08-25T03:25:07;5.03;;;2.95;;
54416;SDS011;40326;51.220;7.250;2022-08-25T03:27:51;5.47;;;3.03;;
54416;SDS011;40326;51.220;7.250;2022-08-25T03:30:17;5.97;;;3.78;;
54416;SDS011;40326;51.220;7.250;2022-08-25T03:32:43;6.95;;;3.13;;
54416;SDS011;40326;51.220;7.250;2022-08-25T03:35:08;5.30;;;2.95;;
54416;SDS011;40326;51.220;7.250;2022-08-25T03:37:36;4.50;;;2.90;;
54416;SDS011;40326;51.220;7.250;2022-08-25T03:40:03;4.43;;;2.85;;
54416;SDS011;40326;51.220;7.250;2022-08-25T03:42:30;5.20;;;3.03;;
54416;SDS011;40326;51.220;7.250;2022-08-25T03:44:56;4.60;;;3.10;;
54416;SDS011;40326;51.220;7.250;2022-08-25T03:47:21;4.60;;;3.20;;
54416;SDS011;40326;51.220;7.250;2022-08-25T03:49:49;4.95;;;3.28;;
54416;SDS011;40326;51.220;7.250;2022-08-25T03:52:15;5.55;;;3.08;;
54416;SDS011;40326;51.220;7.250;2022-08-25T03:54:42;5.72;;;3.10;;
54416;SDS011;40326;51.220;7.250;2022-08-25T03:57:08;6.43;;;3.22;;
54416;SDS011;40326;51.220;7.250;2022-08-25T03:59:33;5.75;;;3.50;;
54416;SDS011;40326;51.220;7.250;2022-08-25T04:02:01;5.00;;;3.30;;
54416;SDS011;40326;51.220;7.250;2022-08-25T04:04:27;5.47;;;3.28;;
54416;SDS011;40326;51.220;7.250;2022-08-25T04:06:53;6.50;;;3.28;;
54416;SDS011;40326;51.220;7.250;2022-08-25T04:09:18;5.45;;;3.00;;
54416;SDS011;40326;51.220;7.250;2022-08-25T04:11:44;7.20;;;3.38;;
54416;SDS011;40326;51.220;7.250;2022-08-25T04:14:09;8.77;;;3.20;;
54416;SDS011;40326;51.220;7.250;2022-08-25T04:16:34;5.00;;;3.40;;
54416;SDS011;40326;51.220;7.250;2022-08-25T04:19:01;7.82;;;3.80;;
54416;SDS011;40326;51.220;7.250;2022-08-25T04:21:29;4.63;;;3.17;;
54416;SDS011;40326;51.220;7.250;2022-08-25T04:23:56;4.90;;;3.50;;
54416;SDS011;40326;51.220;7.250;2022-08-25T04:26:29;6.03;;;3.75;;
54416;SDS011;40326;51.220;7.250;2022-08-25T04:28:59;7.75;;;3.50;;
54416;SDS011;40326;51.220;7.250;2022-08-25T04:31:25;5.05;;;3.47;;
54416;SDS011;40326;51.220;7.250;2022-08-25T04:33:52;5.47;;;3.65;;
54416;SDS011;40326;51.220;7.250;2022-08-25T04:36:18;6.43;;;3.90;;
54416;SDS011;40326;51.220;7.250;2022-08-25T04:38:44;7.97;;;3.72;;
54416;SDS011;40326;51.220;7.250;2022-08-25T04:41:12;5.18;;;3.67;;
54416;SDS011;40326;51.220;7.250;2022-08-25T04:43:39;5.25;;;3.67;;
54416;SDS011;40326;51.220;7.250;2022-08-25T04:46:10;4.93;;;3.35;;
54416;SDS011;40326;51.220;7.250;2022-08-25T04:48:38;6.38;;;3.65;;
54416;SDS011;40326;51.220;7.250;2022-08-25T04:51:11;4.93;;;3.80;;
54416;SDS011;40326;51.220;7.250;2022-08-25T04:53:38;6.45;;;3.63;;
54416;SDS011;40326;51.220;7.250;2022-08-25T04:56:05;5.60;;;3.47;;
54416;SDS011;40326;51.220;7.250;2022-08-25T04:58:35;6.82;;;3.78;;
54416;SDS011;40326;51.220;7.250;2022-08-25T05:01:11;7.35;;;4.13;;
54416;SDS011;40326;51.220;7.250;2022-08-25T05:03:40;7.35;;;4.13;;
54416;SDS011;40326;51.220;7.250;2022-08-25T05:06:05;5.03;;;3.40;;
54416;SDS011;40326;51.220;7.250;2022-08-25T05:08:32;5.30;;;3.75;;
54416;SDS011;40326;51.220;7.250;2022-08-25T05:10:58;5.20;;;3.70;;
54416;SDS011;40326;51.220;7.250;2022-08-25T05:13:24;7.45;;;3.90;;
54416;SDS011;40326;51.220;7.250;2022-08-25T05:15:56;5.07;;;3.67;;
54416;SDS011;40326;51.220;7.250;2022-08-25T05:18:25;6.53;;;3.75;;
54416;SDS011;40326;51.220;7.250;2022-08-25T05:20:52;6.25;;;3.80;;
54416;SDS011;40326;51.220;7.250;2022-08-25T05:23:20;7.00;;;3.83;;
54416;SDS011;40326;51.220;7.250;2022-08-25T05:25:47;5.90;;;3.97;;
54416;SDS011;40326;51.220;7.250;2022-08-25T05:28:13;5.43;;;3.90;;
54416;SDS011;40326;51.220;7.250;2022-08-25T05:30:40;8.27;;;4.10;;
54416;SDS011;40326;51.220;7.250;2022-08-25T05:33:07;5.78;;;3.83;;
54416;SDS011;40326;51.220;7.250;2022-08-25T05:35:33;6.82;;;3.85;;
54416;SDS011;40326;51.220;7.250;2022-08-25T05:38:00;4.60;;;2.95;;
54416;SDS011;40326;51.220;7.250;2022-08-25T05:40:26;8.23;;;3.83;;
54416;SDS011;40326;51.220;7.250;2022-08-25T05:42:52;6.13;;;3.85;;
54416;SDS011;40326;51.220;7.250;2022-08-25T05:45:18;5.53;;;3.58;;
54416;SDS011;40326;51.220;7.250;2022-08-25T05:47:43;5.88;;;3.83;;
54416;SDS011;40326;51.220;7.250;2022-08-25T05:50:09;5.43;;;3.80;;
54416;SDS011;40326;51.220;7.250;2022-08-25T05:52:35;7.13;;;3.85;;
54416;SDS011;40326;51.220;7.250;2022-08-25T05:55:00;4.82;;;3.33;;
54416;SDS011;40326;51.220;7.250;2022-08-25T05:57:26;6.93;;;3.70;;
54416;SDS011;40326;51.220;7.250;2022-08-25T05:59:51;5.50;;;3.58;;
54416;SDS011;40326;51.220;7.250;2022-08-25T06:02:17;6.47;;;4.05;;
54416;SDS011;40326;51.220;7.250;2022-08-25T06:05:01;4.63;;;3.33;;
54416;SDS011;40326;51.220;7.250;2022-08-25T06:07:26;5.03;;;3.50;;
54416;SDS011;40326;51.220;7.250;2022-08-25T06:09:51;4.95;;;3.45;;
54416;SDS011;40326;51.220;7.250;2022-08-25T06:12:17;6.13;;;3.65;;
54416;SDS011;40326;51.220;7.250;2022-08-25T06:14:45;6.60;;;3.05;;
54416;SDS011;40326;51.220;7.250;2022-08-25T06:17:10;5.90;;;3.50;;
54416;SDS011;40326;51.220;7.250;2022-08-25T06:19:35;6.03;;;3.30;;
54416;SDS011;40326;51.220;7.250;2022-08-25T06:22:01;5.28;;;3.70;;
54416;SDS011;40326;51.220;7.250;2022-08-25T06:24:27;5.80;;;3.30;;
54416;SDS011;40326;51.220;7.250;2022-08-25T06:26:53;5.00;;;3.55;;
54416;SDS011;40326;51.220;7.250;2022-08-25T06:29:20;6.20;;;3.30;;
54416;SDS011;40326;51.220;7.250;2022-08-25T06:31:45;5.38;;;3.70;;
54416;SDS011;40326;51.220;7.250;2022-08-25T06:34:11;8.30;;;3.88;;
54416;SDS011;40326;51.220;7.250;2022-08-25T06:36:37;5.10;;;3.40;;
54416;SDS011;40326;51.220;7.250;2022-08-25T06:39:03;5.30;;;3.38;;
54416;SDS011;40326;51.220;7.250;2022-08-25T06:41:29;6.15;;;3.30;;
54416;SDS011;40326;51.220;7.250;2022-08-25T06:43:54;6.32;;;3.25;;
54416;SDS011;40326;51.220;7.250;2022-08-25T06:46:21;5.95;;;3.85;;
54416;SDS011;40326;51.220;7.250;2022-08-25T06:48:50;4.85;;;3.45;;
54416;SDS011;40326;51.220;7.250;2022-08-25T06:51:20;6.90;;;3.72;;
54416;SDS011;40326;51.220;7.250;2022-08-25T06:53:47;6.20;;;3.65;;
54416;SDS011;40326;51.220;7.250;2022-08-25T06:56:14;6.30;;;3.60;;
54416;SDS011;40326;51.220;7.250;2022-08-25T06:58:41;5.45;;;3.47;;
54416;SDS011;40326;51.220;7.250;2022-08-25T07:01:07;6.18;;;3.53;;
54416;SDS011;40326;51.220;7.250;2022-08-25T07:03:34;6.07;;;4.10;;
54416;SDS011;40326;51.220;7.250;2022-08-25T07:06:00;5.72;;;3.72;;
54416;SDS011;40326;51.220;7.250;2022-08-25T07:08:25;4.93;;;3.65;;
54416;SDS011;40326;51.220;7.250;2022-08-25T07:10:50;5.97;;;3.65;;
54416;SDS011;40326;51.220;7.250;2022-08-25T07:13:16;5.00;;;3.58;;
54416;SDS011;40326;51.220;7.250;2022-08-25T07:15:44;6.03;;;4.07;;
54416;SDS011;40326;51.220;7.250;2022-08-25T07:18:10;6.72;;;4.07;;
54416;SDS011;40326;51.220;7.250;2022-08-25T07:20:38;5.13;;;3.50;;
54416;SDS011;40326;51.220;7.250;2022-08-25T07:23:05;4.82;;;3.22;;
54416;SDS011;40326;51.220;7.250;2022-08-25T07:25:31;5.93;;;3.70;;
54416;SDS011;40326;51.220;7.250;2022-08-25T07:27:57;6.72;;;3.75;;
54416;SDS011;40326;51.220;7.250;2022-08-25T07:30:23;5.15;;;3.55;;
54416;SDS011;40326;51.220;7.250;2022-08-25T07:32:48;4.70;;;3.05;;
54416;SDS011;40326;51.220;7.250;2022-08-25T07:35:13;6.57;;;3.88;;
54416;SDS011;40326;51.220;7.250;2022-08-25T07:37:39;4.93;;;3.50;;
54416;SDS011;40326;51.220;7.250;2022-08-25T07:40:07;6.22;;;3.53;;
54416;SDS011;40326;51.220;7.250;2022-08-25T07:42:33;6.28;;;3.63;;
54416;SDS011;40326;51.220;7.250;2022-08-25T07:44:59;6.10;;;3.80;;
54416;SDS011;40326;51.220;7.250;2022-08-25T07:47:25;6.75;;;3.42;;
54416;SDS011;40326;51.220;7.250;2022-08-25T07:49:50;7.68;;;3.50;;
54416;SDS011;40326;51.220;7.250;2022-08-25T07:52:16;5.70;;;3.55;;
54416;SDS011;40326;51.220;7.250;2022-08-25T07:54:44;5.75;;;3.60;;
54416;SDS011;40326;51.220;7.250;2022-08-25T07:57:09;6.18;;;3.22;;
54416;SDS011;40326;51.220;7.250;2022-08-25T07:59:38;8.95;;;3.60;;
54416;SDS011;40326;51.220;7.250;2022-08-25T08:02:04;5.65;;;3.63;;
54416;SDS011;40326;51.220;7.250;2022-08-25T08:04:35;4.97;;;3.47;;
54416;SDS011;40326;51.220;7.250;2022-08-25T08:07:01;5.47;;;3.35;;
54416;SDS011;40326;51.220;7.250;2022-08-25T08:09:26;6.45;;;3.45;;
54416;SDS011;40326;51.220;7.250;2022-08-25T08:11:54;5.55;;;3.67;;
54416;SDS011;40326;51.220;7.250;2022-08-25T08:14:20;5.63;;;3.33;;
54416;SDS011;40326;51.220;7.250;2022-08-25T08:16:45;5.70;;;3.42;;
54416;SDS011;40326;51.220;7.250;2022-08-25T08:19:10;6.45;;;3.50;;
54416;SDS011;40326;51.220;7.250;2022-08-25T08:21:37;5.10;;;3.70;;
54416;SDS011;40326;51.220;7.250;2022-08-25T08:24:05;5.28;;;3.10;;
54416;SDS011;40326;51.220;7.250;2022-08-25T08:26:31;6.05;;;3.40;;
54416;SDS011;40326;51.220;7.250;2022-08-25T08:28:57;6.03;;;3.38;;
54416;SDS011;40326;51.220;7.250;2022-08-25T08:31:23;4.55;;;3.25;;
54416;SDS011;40326;51.220;7.250;2022-08-25T08:33:51;5.22;;;3.45;;
54416;SDS011;40326;51.220;7.250;2022-08-25T08:36:17;7.70;;;3.22;;
54416;SDS011;40326;51.220;7.250;2022-08-25T08:38:43;5.00;;;3.33;;
54416;SDS011;40326;51.220;7.250;2022-08-25T08:44:25;4.63;;;3.13;;
54416;SDS011;40326;51.220;7.250;2022-08-25T08:50:22;5.50;;;3.35;;
54416;SDS011;40326;51.220;7.250;2022-08-25T08:57:49;6.40;;;3.00;;
54416;SDS011;40326;51.220;7.250;2022-08-25T09:00:17;5.55;;;3.40;;
54416;SDS011;40326;51.220;7.250;2022-08-25T09:02:49;5.70;;;2.85;;
54416;SDS011;40326;51.220;7.250;2022-08-25T09:05:19;4.78;;;3.03;;
54416;SDS011;40326;51.220;7.250;2022-08-25T09:07:52;4.13;;;2.95;;
54416;SDS011;40326;51.220;7.250;2022-08-25T09:10:20;4.68;;;3.40;;
54416;SDS011;40326;51.220;7.250;2022-08-25T09:12:54;5.30;;;3.20;;
54416;SDS011;40326;51.220;7.250;2022-08-25T09:26:44;4.85;;;2.88;;
54416;SDS011;40326;51.220;7.250;2022-08-25T09:29:22;4.55;;;3.05;;
54416;SDS011;40326;51.220;7.250;2022-08-25T09:31:50;5.15;;;3.10;;
54416;SDS011;40326;51.220;7.250;2022-08-25T09:34:22;3.80;;;2.55;;
54416;SDS011;40326;51.220;7.250;2022-08-25T09:36:52;4.38;;;2.67;;
54416;SDS011;40326;51.220;7.250;2022-08-25T09:39:18;5.57;;;3.03;;
54416;SDS011;40326;51.220;7.250;2022-08-25T09:41:51;4.85;;;3.08;;
54416;SDS011;40326;51.220;7.250;2022-08-25T09:44:25;5.55;;;3.17;;
54416;SDS011;40326;51.220;7.250;2022-08-25T09:46:53;4.75;;;3.00;;
54416;SDS011;40326;51.220;7.250;2022-08-25T09:49:39;6.03;;;3.25;;
54416;SDS011;40326;51.220;7.250;2022-08-25T09:54:47;5.75;;;3.67;;
54416;SDS011;40326;51.220;7.250;2022-08-25T09:57:36;4.95;;;3.25;;
54416;SDS011;40326;51.220;7.250;2022-08-25T10:00:18;5.18;;;2.90;;
54416;SDS011;40326;51.220;7.250;2022-08-25T10:02:59;4.10;;;2.97;;
54416;SDS011;40326;51.220;7.250;2022-08-25T10:05:31;6.40;;;3.28;;
54416;SDS011;40326;51.220;7.250;2022-08-25T10:08:03;5.07;;;3.30;;
54416;SDS011;40326;51.220;7.250;2022-08-25T10:10:52;5.22;;;3.47;;
54416;SDS011;40326;51.220;7.250;2022-08-25T10:13:19;5.00;;;3.20;;
54416;SDS011;40326;51.220;7.250;2022-08-25T10:15:46;7.60;;;3.17;;
54416;SDS011;40326;51.220;7.250;2022-08-25T10:18:26;4.70;;;3.05;;
54416;SDS011;40326;51.220;7.250;2022-08-25T10:21:00;6.60;;;3.10;;
54416;SDS011;40326;51.220;7.250;2022-08-25T10:23:49;6.82;;;2.72;;
54416;SDS011;40326;51.220;7.250;2022-08-25T10:29:21;4.20;;;2.80;;
54416;SDS011;40326;51.220;7.250;2022-08-25T10:31:58;4.82;;;3.05;;
54416;SDS011;40326;51.220;7.250;2022-08-25T10:42:30;3.80;;;2.60;;
54416;SDS011;40326;51.220;7.250;2022-08-25T10:48:06;4.80;;;2.95;;
54416;SDS011;40326;51.220;7.250;2022-08-25T10:53:25;5.85;;;2.97;;
54416;SDS011;40326;51.220;7.250;2022-08-25T10:56:16;5.13;;;2.80;;
54416;SDS011;40326;51.220;7.250;2022-08-25T10:58:49;4.40;;;2.83;;
54416;SDS011;40326;51.220;7.250;2022-08-25T11:04:07;5.47;;;2.72;;
54416;SDS011;40326;51.220;7.250;2022-08-25T11:06:38;4.45;;;2.38;;
54416;SDS011;40326;51.220;7.250;2022-08-25T11:09:11;4.85;;;3.05;;
54416;SDS011;40326;51.220;7.250;2022-08-25T11:11:47;5.63;;;2.83;;
54416;SDS011;40326;51.220;7.250;2022-08-25T11:14:20;5.15;;;2.47;;
54416;SDS011;40326;51.220;7.250;2022-08-25T11:17:15;4.50;;;2.58;;
54416;SDS011;40326;51.220;7.250;2022-08-25T11:19:44;4.22;;;2.55;;
54416;SDS011;40326;51.220;7.250;2022-08-25T11:24:47;4.85;;;2.70;;
54416;SDS011;40326;51.220;7.250;2022-08-25T11:27:36;5.05;;;2.67;;
54416;SDS011;40326;51.220;7.250;2022-08-25T11:30:11;5.88;;;2.60;;
54416;SDS011;40326;51.220;7.250;2022-08-25T11:32:38;4.40;;;2.50;;
54416;SDS011;40326;51.220;7.250;2022-08-25T11:35:09;3.30;;;2.10;;
54416;SDS011;40326;51.220;7.250;2022-08-25T11:37:54;3.67;;;2.20;;
54416;SDS011;40326;51.220;7.250;2022-08-25T11:45:46;4.50;;;2.80;;
54416;SDS011;40326;51.220;7.250;2022-08-25T11:50:58;6.55;;;2.60;;
54416;SDS011;40326;51.220;7.250;2022-08-25T11:53:28;4.00;;;2.50;;
54416;SDS011;40326;51.220;7.250;2022-08-25T11:55:57;6.25;;;2.72;;
54416;SDS011;40326;51.220;7.250;2022-08-25T11:58:47;4.13;;;2.65;;
54416;SDS011;40326;51.220;7.250;2022-08-25T12:15:19;4.72;;;2.42;;
54416;SDS011;40326;51.220;7.250;2022-08-25T12:23:28;5.57;;;2.67;;
54416;SDS011;40326;51.220;7.250;2022-08-25T12:25:59;8.52;;;2.40;;
54416;SDS011;40326;51.220;7.250;2022-08-25T12:28:42;5.78;;;2.47;;
54416;SDS011;40326;51.220;7.250;2022-08-25T12:34:39;3.80;;;2.25;;
54416;SDS011;40326;51.220;7.250;2022-08-25T12:37:15;4.07;;;2.10;;
54416;SDS011;40326;51.220;7.250;2022-08-25T12:47:43;6.28;;;2.05;;
54416;SDS011;40326;51.220;7.250;2022-08-25T12:50:34;6.55;;;2.38;;
54416;SDS011;40326;51.220;7.250;2022-08-25T12:53:13;3.92;;;2.17;;
54416;SDS011;40326;51.220;7.250;2022-08-25T12:55:48;3.78;;;2.05;;
54416;SDS011;40326;51.220;7.250;2022-08-25T12:58:17;4.88;;;2.35;;
54416;SDS011;40326;51.220;7.250;2022-08-25T13:04:03;4.55;;;2.17;;
54416;SDS011;40326;51.220;7.250;2022-08-25T13:13:09;3.72;;;2.20;;
54416;SDS011;40326;51.220;7.250;2022-08-25T13:15:15;3.80;;;2.10;;
54416;SDS011;40326;51.220;7.250;2022-08-25T13:17:50;4.85;;;2.42;;
54416;SDS011;40326;51.220;7.250;2022-08-25T13:22:47;4.22;;;2.40;;
54416;SDS011;40326;51.220;7.250;2022-08-25T13:25:18;4.35;;;2.30;;
54416;SDS011;40326;51.220;7.250;2022-08-25T13:27:47;3.20;;;2.10;;
54416;SDS011;40326;51.220;7.250;2022-08-25T13:30:23;2.88;;;2.03;;
54416;SDS011;40326;51.220;7.250;2022-08-25T13:32:54;5.80;;;2.50;;
54416;SDS011;40326;51.220;7.250;2022-08-25T13:37:48;3.75;;;2.17;;
54416;SDS011;40326;51.220;7.250;2022-08-25T13:40:28;5.80;;;2.22;;
54416;SDS011;40326;51.220;7.250;2022-08-25T13:42:59;4.57;;;2.20;;
54416;SDS011;40326;51.220;7.250;2022-08-25T13:47:54;4.35;;;2.15;;
54416;SDS011;40326;51.220;7.250;2022-08-25T13:55:25;3.55;;;2.00;;
54416;SDS011;40326;51.220;7.250;2022-08-25T13:57:57;3.00;;;1.92;;
54416;SDS011;40326;51.220;7.250;2022-08-25T14:00:33;3.25;;;2.08;;
54416;SDS011;40326;51.220;7.250;2022-08-25T14:03:07;3.67;;;1.88;;
54416;SDS011;40326;51.220;7.250;2022-08-25T14:06:02;3.58;;;2.00;;
54416;SDS011;40326;51.220;7.250;2022-08-25T14:08:34;5.55;;;2.17;;
54416;SDS011;40326;51.220;7.250;2022-08-25T14:11:09;3.10;;;1.80;;
54416;SDS011;40326;51.220;7.250;2022-08-25T14:14:03;3.45;;;1.92;;
54416;SDS011;40326;51.220;7.250;2022-08-25T14:16:34;3.60;;;1.90;;
54416;SDS011;40326;51.220;7.250;2022-08-25T14:19:03;4.32;;;2.08;;
54416;SDS011;40326;51.220;7.250;2022-08-25T14:21:30;3.10;;;1.73;;
54416;SDS011;40326;51.220;7.250;2022-08-25T14:23:57;3.35;;;1.95;;
54416;SDS011;40326;51.220;7.250;2022-08-25T14:26:23;3.58;;;2.15;;
54416;SDS011;40326;51.220;7.250;2022-08-25T14:28:49;3.20;;;2.00;;
54416;SDS011;40326;51.220;7.250;2022-08-25T14:31:17;2.90;;;1.63;;
54416;SDS011;40326;51.220;7.250;2022-08-25T14:33:50;3.05;;;1.80;;
54416;SDS011;40326;51.220;7.250;2022-08-25T14:36:22;3.30;;;1.80;;
54416;SDS011;40326;51.220;7.250;2022-08-25T14:38:47;3.38;;;1.80;;
54416;SDS011;40326;51.220;7.250;2022-08-25T14:41:13;3.45;;;1.90;;
54416;SDS011;40326;51.220;7.250;2022-08-25T14:43:39;3.70;;;2.13;;
54416;SDS011;40326;51.220;7.250;2022-08-25T14:46:09;3.28;;;1.80;;
54416;SDS011;40326;51.220;7.250;2022-08-25T14:48:42;4.20;;;2.00;;
54416;SDS011;40326;51.220;7.250;2022-08-25T14:51:10;4.70;;;1.80;;
54416;SDS011;40326;51.220;7.250;2022-08-25T14:53:37;3.70;;;2.08;;
54416;SDS011;40326;51.220;7.250;2022-08-25T14:56:02;3.72;;;2.00;;
54416;SDS011;40326;51.220;7.250;2022-08-25T14:58:28;3.85;;;2.15;;
54416;SDS011;40326;51.220;7.250;2022-08-25T15:00:53;3.10;;;2.00;;
54416;SDS011;40326;51.220;7.250;2022-08-25T15:03:29;3.33;;;1.98;;
54416;SDS011;40326;51.220;7.250;2022-08-25T15:05:56;3.47;;;1.92;;
54416;SDS011;40326;51.220;7.250;2022-08-25T15:08:22;3.70;;;2.03;;
54416;SDS011;40326;51.220;7.250;2022-08-25T15:11:06;2.60;;;1.80;;
54416;SDS011;40326;51.220;7.250;2022-08-25T15:13:32;3.85;;;2.00;;
54416;SDS011;40326;51.220;7.250;2022-08-25T15:15:57;4.75;;;2.00;;
54416;SDS011;40326;51.220;7.250;2022-08-25T15:18:23;3.45;;;2.20;;
54416;SDS011;40326;51.220;7.250;2022-08-25T15:20:49;3.03;;;1.90;;
54416;SDS011;40326;51.220;7.250;2022-08-25T15:23:15;3.97;;;1.95;;
54416;SDS011;40326;51.220;7.250;2022-08-25T15:25:40;3.55;;;1.75;;
54416;SDS011;40326;51.220;7.250;2022-08-25T15:28:07;4.47;;;2.40;;
54416;SDS011;40326;51.220;7.250;2022-08-25T15:30:33;4.30;;;1.95;;
54416;SDS011;40326;51.220;7.250;2022-08-25T15:32:59;3.10;;;1.80;;
54416;SDS011;40326;51.220;7.250;2022-08-25T15:35:25;3.30;;;1.80;;
54416;SDS011;40326;51.220;7.250;2022-08-25T15:37:51;3.50;;;1.80;;
54416;SDS011;40326;51.220;7.250;2022-08-25T15:40:16;2.95;;;1.90;;
54416;SDS011;40326;51.220;7.250;2022-08-25T15:42:42;3.58;;;1.95;;
54416;SDS011;40326;51.220;7.250;2022-08-25T15:45:07;2.97;;;2.03;;
54416;SDS011;40326;51.220;7.250;2022-08-25T15:47:34;4.03;;;2.63;;
54416;SDS011;40326;51.220;7.250;2022-08-25T15:50:07;2.80;;;1.73;;
54416;SDS011;40326;51.220;7.250;2022-08-25T15:52:36;3.67;;;1.80;;
54416;SDS011;40326;51.220;7.250;2022-08-25T15:55:01;3.53;;;1.90;;
54416;SDS011;40326;51.220;7.250;2022-08-25T15:57:28;2.92;;;1.67;;
54416;SDS011;40326;51.220;7.250;2022-08-25T15:59:53;3.88;;;2.17;;
54416;SDS011;40326;51.220;7.250;2022-08-25T16:02:19;3.90;;;2.20;;
54416;SDS011;40326;51.220;7.250;2022-08-25T16:04:45;3.65;;;2.05;;
54416;SDS011;40326;51.220;7.250;2022-08-25T16:07:11;3.40;;;1.70;;
54416;SDS011;40326;51.220;7.250;2022-08-25T16:09:36;4.60;;;2.15;;
54416;SDS011;40326;51.220;7.250;2022-08-25T16:12:02;3.78;;;1.90;;
54416;SDS011;40326;51.220;7.250;2022-08-25T16:14:27;4.07;;;1.90;;
54416;SDS011;40326;51.220;7.250;2022-08-25T16:16:53;2.90;;;1.70;;
54416;SDS011;40326;51.220;7.250;2022-08-25T16:19:18;2.65;;;1.70;;
54416;SDS011;40326;51.220;7.250;2022-08-25T16:21:43;4.18;;;1.98;;
54416;SDS011;40326;51.220;7.250;2022-08-25T16:24:09;3.45;;;1.80;;
54416;SDS011;40326;51.220;7.250;2022-08-25T16:26:37;4.22;;;2.22;;
54416;SDS011;40326;51.220;7.250;2022-08-25T16:29:06;4.35;;;1.80;;
54416;SDS011;40326;51.220;7.250;2022-08-25T16:31:32;3.95;;;1.90;;
54416;SDS011;40326;51.220;7.250;2022-08-25T16:33:58;3.75;;;2.00;;
54416;SDS011;40326;51.220;7.250;2022-08-25T16:36:25;3.80;;;2.20;;
54416;SDS011;40326;51.220;7.250;2022-08-25T16:38:51;4.05;;;1.90;;
54416;SDS011;40326;51.220;7.250;2022-08-25T16:41:19;3.92;;;2.10;;
54416;SDS011;40326;51.220;7.250;2022-08-25T16:43:46;4.45;;;2.00;;
54416;SDS011;40326;51.220;7.250;2022-08-25T16:46:14;3.63;;;1.90;;
54416;SDS011;40326;51.220;7.250;2022-08-25T16:48:41;3.58;;;2.10;;